Station: Hindmarsh Island  

  Atmospheric Gas Attenuation - ITU Rec 676-11   ----------------- dB/100km -----------------
Date Time Temp RH % AH g/m3 Dew Point Wind Direction Speed kph Gust kph Barometer mB Rainfall Since 9am 24GHz 47GHz 76GHz 122GHz 134GHz 241GHz
04/09 10:50 16.8 75 10.72 12.3 22 28 1014.9 0 24.0 28.5 46.9 123.4 122.8 424.0
04/09 10:40 16.5 74 10.39 11.9 20 26 1015.1 0 23.3 28.1 45.7 120.2 118.7 410.0
04/09 10:30 16.3 78 10.82 12.5 20 26 1015.2 0 24.2 28.9 47.6 125.4 125.0 431.7
04/09 10:20 15.4 80 10.51 12 20 28 1015.4 0 23.6 28.6 46.9 123.3 122.1 421.7
04/09 10:10 15.1 80 10.32 11.7 24 30 1015.4 0 23.2 28.4 46.3 121.7 120.0 414.2
04/09 10:00 14.7 82 10.32 11.7 24 32 1015.6 0 23.2 28.6 46.5 122.3 120.6 416.4
04/09 09:50 14.6 82 10.26 11.6 24 32 1015.7 0 23.1 28.5 46.3 121.8 120.0 414.0
04/09 09:40 14.3 83 10.2 11.5 22 32 1015.7 0 23.0 28.5 46.2 121.6 119.6 412.7
04/09 09:30 14 83 10.01 11.2 20 28 1016 0 22.6 28.3 45.6 120.0 117.5 405.2
04/09 09:20 13.6 82 9.65 10.6 22 26 1016 0 21.8 27.8 44.3 116.5 113.1 389.8
04/09 09:10 13.4 84 9.77 10.8 20 26 1016.1 0 22.1 28.1 45.0 118.2 115.0 396.6
04/09 09:00 13 84 9.53 10.4 20 28 1016.2 0 21.6 27.8 44.2 116.1 112.3 387.1
04/09 08:50 12.6 84 9.29 10 22 30 1016.5 0.2 21.1 27.5 43.4 114.0 109.6 377.5
04/09 08:40 12.5 84 9.24 9.9 22 30 1016.5 0.2 21.0 27.5 43.3 113.6 109.1 375.6
04/09 08:30 12.4 84 9.18 9.8 26 33 1016.4 0.2 20.9 27.4 43.1 113.1 108.4 373.2
04/09 08:20 12.4 84 9.18 9.8 24 33 1016.2 0.2 20.9 27.4 43.0 113.1 108.4 373.1
04/09 08:10 12.2 85 9.17 9.8 26 32 1016 0.2 20.9 27.4 43.1 113.2 108.5 373.5
04/09 08:00 12.3 83 9.01 9.5 26 33 1016.3 0.2 20.5 27.1 42.4 111.3 106.2 365.4
04/09 07:50 12.2 82 8.85 9.2 26 35 1016.3 0.2 20.2 26.9 41.8 109.7 104.1 358.2
04/09 07:40 12.2 82 8.85 9.2 26 37 1016.2 0.2 20.2 26.9 41.8 109.7 104.1 358.2
04/09 07:30 12.1 81 8.69 8.9 30 39 1016.2 0.2 19.9 26.7 41.2 108.0 102.1 351.0
04/09 07:20 12 82 8.74 9 28 37 1016.1 0.2 20.0 26.8 41.4 108.7 102.9 353.8
04/09 07:10 12 81 8.63 8.8 26 33 1016.3 0.2 19.7 26.6 41.0 107.5 101.4 348.6
04/09 07:00 11.9 81 8.58 8.7 26 39 1016.3 0.2 19.6 26.5 40.8 107.1 100.8 346.7
04/09 06:50 11.8 82 8.63 8.8 28 35 1016.3 0.2 19.7 26.7 41.1 107.8 101.6 349.5
04/09 06:40 11.6 82 8.52 8.6 28 35 1016.3 0.2 19.5 26.5 40.7 106.9 100.4 345.2
04/09 06:30 11.6 82 8.52 8.6 26 33 1016.3 0.2 19.5 26.5 40.7 106.9 100.4 345.2
04/09 06:20 11.5 83 8.57 8.7 22 32 1016.2 0.2 19.6 26.6 41.0 107.5 101.2 348.0
04/09 06:10 11.3 85 8.67 8.9 22 28 1016.4 0.2 19.9 26.9 41.5 109.0 102.9 353.7
04/09 06:00 11 87 8.71 8.9 22 30 1016.6 0.2 20.0 27.0 41.8 109.8 103.8 357.1
04/09 05:50 10.8 88 8.7 8.9 20 28 1016.7 0.2 19.9 27.1 41.9 110.0 104.0 357.6
04/09 05:40 10.8 87 8.6 8.7 20 26 1017 0.2 19.7 26.9 41.5 108.9 102.6 352.8
04/09 05:30 10.6 87 8.49 8.5 20 24 1017.2 0.2 19.5 26.8 41.2 108.0 101.4 348.5
04/09 05:20 10.6 86 8.4 8.4 20 24 1017.1 0.2 19.3 26.7 40.8 107.0 100.1 344.1
04/09 05:10 10.7 85 8.35 8.3 20 28 1017 0.2 19.2 26.5 40.5 106.3 99.3 341.2
04/09 05:00 10.9 84 8.36 8.3 19 26 1017.3 0.2 19.2 26.5 40.5 106.2 99.2 340.9
04/09 04:50 10.9 84 8.36 8.3 15 19 1016.9 0.2 19.2 26.5 40.5 106.1 99.2 340.8
04/09 04:40 10.8 83 8.21 8 15 20 1016.5 0.2 18.9 26.3 39.9 104.5 97.2 334.0
04/09 04:30 11.1 80 8.06 7.8 19 24 1017.2 0.2 18.6 25.9 39.1 102.6 94.9 325.8
04/09 04:20 11.1 80 8.06 7.8 19 26 1017.2 0.2 18.6 25.9 39.1 102.6 94.9 325.8
04/09 04:10 11.2 80 8.11 7.9 19 24 1017.2 0.2 18.7 26.0 39.3 103.0 95.4 327.7
04/09 04:00 11.6 79 8.21 8.1 17 22 1017.4 0.2 18.9 26.1 39.5 103.6 96.3 330.8
04/09 03:50 11.2 82 8.31 8.2 17 20 1017.5 0.2 19.1 26.3 40.1 105.2 98.2 337.3
04/09 03:40 11.3 83 8.47 8.5 15 20 1017.6 0.2 19.4 26.6 40.7 106.9 100.2 344.5
04/09 03:30 11.4 83 8.52 8.6 13 19 1017.7 0.2 19.5 26.6 40.9 107.3 100.8 346.5
04/09 03:20 11.4 83 8.52 8.6 13 17 1017.8 0.2 19.5 26.6 40.9 107.3 100.8 346.5
04/09 03:10 11.3 83 8.47 8.5 15 19 1018 0.2 19.4 26.6 40.8 106.9 100.3 344.6
04/09 03:00 11.1 85 8.56 8.7 17 20 1018.1 0.2 19.6 26.8 41.2 108.2 101.8 349.8
04/09 02:50 10.8 87 8.6 8.7 19 22 1018 0.2 19.7 27.0 41.6 109.0 102.7 353.1
04/09 02:40 10.6 87 8.49 8.5 19 20 1018.1 0.2 19.5 26.8 41.2 108.1 101.5 348.7
04/09 02:30 10.7 84 8.25 8.1 11 15 1018.3 0.2 19.0 26.4 40.2 105.3 98.1 336.8
04/09 02:20 11.4 83 8.52 8.6 13 15 1018.5 0.2 19.5 26.7 40.9 107.4 100.9 346.7
04/09 02:10 11.6 82 8.52 8.6 13 13 1018.8 0.2 19.5 26.6 40.8 107.1 100.6 345.9
04/09 02:00 11.6 81 8.42 8.5 13 15 1019 0.2 19.3 26.5 40.4 106.1 99.3 341.2
04/09 01:50 11.6 81 8.42 8.5 15 17 1019.1 0.2 19.3 26.5 40.4 106.1 99.3 341.2
04/09 01:40 11.6 81 8.42 8.5 13 15 1019.2 0.2 19.3 26.5 40.4 106.1 99.3 341.2
04/09 01:30 11.7 80 8.37 8.4 15 17 1019.3 0.2 19.2 26.4 40.2 105.4 98.5 338.5
04/09 01:20 11.7 80 8.37 8.4 13 15 1019.4 0.2 19.2 26.4 40.2 105.4 98.5 338.5
04/09 01:10 11.8 79 8.32 8.3 11 17 1019.6 0.2 19.1 26.3 40.0 104.7 97.7 335.7
04/09 01:00 11.7 80 8.37 8.4 15 19 1019.7 0.2 19.2 26.4 40.2 105.4 98.5 338.6
04/09 00:50 11.8 81 8.53 8.6 13 19 1019.6 0.2 19.5 26.6 40.8 107.1 100.6 345.7
04/09 00:40 11.5 83 8.57 8.7 7 11 1019.7 0.2 19.6 26.8 41.1 107.9 101.5 349.0
04/09 00:30 11.5 82 8.47 8.5 4 7 1019.7 0.2 19.4 26.6 40.7 106.8 100.1 344.2
04/09 00:20 11.5 81 8.37 8.4 6 9 1019.8 0.2 19.2 26.4 40.3 105.7 98.8 339.5
04/09 00:10 11.7 81 8.47 8.6 6 7 1020 0.2 19.4 26.6 40.6 106.6 99.9 343.4
04/09 00:00 11.6 80 8.32 8.3 9 11 1020.1 0.2 19.1 26.3 40.1 105.1 98.0 336.7
03/09 23:50 12 79 8.42 8.5 9 13 1020.2 0.2 19.3 26.4 40.3 105.6 98.9 339.8
03/09 23:40 12.1 79 8.47 8.6 11 15 1020.4 0.2 19.4 26.5 40.5 106.1 99.4 341.8
03/09 23:30 12.1 81 8.69 8.9 11 13 1020.6 0.2 19.9 26.8 41.4 108.5 102.4 352.3
03/09 23:20 12.2 80 8.63 8.9 9 11 1020.8 0.2 19.7 26.7 41.1 107.7 101.5 349.0
03/09 23:10 12.3 80 8.69 9 9 13 1020.8 0.2 19.8 26.8 41.3 108.3 102.2 351.4
03/09 23:00 12.3 80 8.69 9 9 11 1020.9 0.2 19.8 26.8 41.3 108.3 102.2 351.5
03/09 22:50 12.2 81 8.74 9 9 13 1020.9 0.2 20.0 26.9 41.5 109.0 103.0 354.3
03/09 22:40 12.2 81 8.74 9 11 13 1020.9 0.2 20.0 26.9 41.5 109.0 103.0 354.3
03/09 22:30 12.2 80 8.63 8.9 11 13 1020.9 0.2 19.7 26.7 41.1 107.7 101.5 349.0
03/09 22:20 12 79 8.42 8.5 9 11 1021 0.2 19.3 26.4 40.3 105.7 98.9 340.0
03/09 22:10 12.1 77 8.26 8.2 9 11 1021 0.2 18.9 26.1 39.6 103.8 96.6 332.0
03/09 22:00 11.9 77 8.16 8 7 11 1021 0.2 18.7 26.0 39.3 103.0 95.5 328.2
03/09 21:50 12.3 75 8.14 8 7 9 1021.3 0.2 18.7 25.9 39.0 102.3 94.8 325.6
03/09 21:40 12.4 75 8.2 8.1 7 9 1021.4 0.2 18.8 26.0 39.2 102.8 95.5 328.1
03/09 21:30 12.4 74 8.09 7.9 9 9 1021.4 0.2 18.6 25.8 38.8 101.6 94.0 322.9
03/09 21:20 12.4 74 8.09 7.9 7 7 1021.3 0.2 18.6 25.8 38.8 101.6 94.0 322.9
03/09 21:10 12.4 74 8.09 7.9 7 7 1021.3 0.2 18.6 25.8 38.8 101.6 94.0 322.9
03/09 21:00 12.4 74 8.09 7.9 7 9 1021.3 0.2 18.6 25.8 38.8 101.6 94.0 322.9
03/09 20:50 12.5 74 8.14 8 7 9 1021.2 0.2 18.7 25.8 38.9 102.0 94.6 324.8
03/09 20:40 12.3 73 7.93 7.6 7 9 1021.1 0.2 18.2 25.5 38.2 100.0 92.0 315.8
03/09 20:30 12.5 72 7.92 7.6 7 9 1021 0.2 18.2 25.5 38.1 99.7 91.6 314.5
03/09 20:20 12.5 71 7.81 7.4 7 9 1020.9 0.2 18.0 25.3 37.6 98.5 90.2 309.4
03/09 20:10 12.8 69 7.73 7.3 6 7 1020.8 0.2 17.8 25.1 37.1 97.2 88.8 304.6
03/09 20:00 12.7 69 7.68 7.2 7 7 1020.8 0.2 17.7 25.0 37.0 96.8 88.2 302.7
03/09 19:50 12.6 71 7.86 7.5 9 11 1020.7 0.2 18.1 25.3 37.7 98.9 90.7 311.3
03/09 19:40 12.6 72 7.97 7.7 11 13 1020.7 0.2 18.3 25.5 38.2 100.0 92.2 316.4
03/09 19:30 12.4 71 7.76 7.3 13 15 1020.5 0.2 17.9 25.2 37.4 98.0 89.6 307.4
03/09 19:20 12.5 71 7.81 7.4 13 15 1020.5 0.2 18.0 25.3 37.6 98.4 90.1 309.3
03/09 19:10 12.5 70 7.7 7.2 11 15 1020.4 0.2 17.7 25.1 37.1 97.3 88.7 304.3
03/09 19:00 12.8 70 7.84 7.5 11 13 1020.3 0.2 18.0 25.2 37.6 98.4 90.2 309.5
03/09 18:50 12.8 71 7.95 7.7 13 17 1020.2 0.2 18.2 25.4 38.0 99.5 91.6 314.5
03/09 18:40 12.6 69 7.63 7.1 13 17 1020.1 0.2 17.6 24.9 36.8 96.4 87.7 300.6
03/09 18:30 12.8 69 7.73 7.3 13 15 1020.2 0.2 17.8 25.0 37.1 97.2 88.7 304.4
03/09 18:20 12.8 70 7.84 7.5 13 17 1019.9 0.2 18.0 25.2 37.5 98.3 90.1 309.4

Last Refresh: 04-Sep-2026 11:04:14

Bureau of Meteorology